Time,TemperatureF,DewpointF,PressureIn,WindDirection,WindDirectionDegrees,WindSpeedMPH,WindSpeedGustMPH,Humidity,HourlyPrecipIn,Conditions,Clouds,dailyrainin,SoftwareType,DateUTC
2013-02-27 00:00:00,32.8,32.0,29.47,East,81,6.0,6.0,97,0.00,,,0.45,Wunderground v.1.12,2013-02-27 05:00:00,
2013-02-27 00:03:00,32.8,32.0,29.47,East,81,4.0,11.0,97,0.00,,,0.45,Wunderground v.1.12,2013-02-27 05:03:00,
2013-02-27 00:05:00,30.6,20.2,30.02,ESE,113,6.0,15.0,65,0.00,,,0.00,Wunderground v.1.12,2013-02-27 05:05:00,
2013-02-27 00:08:00,32.9,32.1,29.47,East,81,4.0,5.0,97,0.00,,,0.45,Wunderground v.1.12,2013-02-27 05:08:00,
2013-02-27 00:10:00,30.6,20.2,30.02,ESE,113,6.0,15.0,65,0.00,,,0.00,Wunderground v.1.12,2013-02-27 05:10:00,
2013-02-27 00:13:00,32.8,32.0,29.46,East,81,6.0,6.0,97,0.00,,,0.45,Wunderground v.1.12,2013-02-27 05:13:00,
2013-02-27 00:15:00,30.6,20.2,30.02,ESE,113,6.0,15.0,65,0.00,,,0.00,Wunderground v.1.12,2013-02-27 05:15:00,
2013-02-27 00:19:00,32.8,32.0,29.46,East,81,3.0,7.0,97,0.00,,,0.45,Wunderground v.1.12,2013-02-27 05:19:00,
2013-02-27 00:20:00,30.6,20.2,30.02,ESE,113,6.0,15.0,65,0.00,,,0.00,Wunderground v.1.12,2013-02-27 05:20:00,
2013-02-27 00:25:00,32.9,32.1,29.46,East,81,4.0,5.0,97,0.00,,,0.45,Wunderground v.1.12,2013-02-27 05:25:00,
2013-02-27 00:30:00,32.9,32.4,29.46,East,82,4.0,5.0,98,0.00,,,0.45,Wunderground v.1.12,2013-02-27 05:30:00,
2013-02-27 00:35:00,32.9,32.4,29.46,East,82,6.0,6.0,98,0.00,,,0.45,Wunderground v.1.12,2013-02-27 05:35:00,
2013-02-27 00:40:00,32.9,32.1,29.46,East,82,4.0,5.0,97,0.00,,,0.45,Wunderground v.1.12,2013-02-27 05:40:00,
2013-02-27 00:45:00,33.1,32.6,29.45,East,82,4.0,6.0,98,0.00,,,0.45,Wunderground v.1.12,2013-02-27 05:45:00,
2013-02-27 00:50:00,33.1,32.6,29.45,East,79,6.0,6.0,98,0.00,,,0.45,Wunderground v.1.12,2013-02-27 05:50:00,
2013-02-27 00:55:00,31.6,19.3,30.00,East,90,8.0,17.0,60,0.00,,,0.00,Wunderground v.1.12,2013-02-27 05:55:00,
2013-02-27 00:56:00,33.1,32.6,29.45,East,80,3.0,6.0,98,0.00,,,0.45,Wunderground v.1.12,2013-02-27 05:56:00,
2013-02-27 01:00:00,31.6,19.3,30.00,East,90,8.0,17.0,60,0.00,,,0.00,Wunderground v.1.12,2013-02-27 06:00:00,
2013-02-27 01:01:00,33.1,32.6,29.45,East,80,3.0,8.0,98,0.00,,,0.45,Wunderground v.1.12,2013-02-27 06:01:00,
2013-02-27 01:05:00,31.6,19.3,30.00,East,90,8.0,17.0,60,0.00,,,0.00,Wunderground v.1.12,2013-02-27 06:05:00,
2013-02-27 01:06:00,33.1,32.6,29.45,East,98,1.0,7.0,98,0.00,,,0.45,Wunderground v.1.12,2013-02-27 06:06:00,
2013-02-27 01:10:00,31.6,19.3,30.00,East,90,8.0,17.0,60,0.00,,,0.00,Wunderground v.1.12,2013-02-27 06:10:00,
2013-02-27 01:12:00,33.1,32.6,29.45,ENE,76,7.0,7.0,98,0.00,,,0.45,Wunderground v.1.12,2013-02-27 06:12:00,
2013-02-27 01:15:00,32.7,18.7,29.99,East,90,8.0,17.0,56,0.00,,,0.00,Wunderground v.1.12,2013-02-27 06:15:00,
2013-02-27 01:18:00,33.2,32.7,29.45,East,98,4.0,6.0,98,0.00,,,0.45,Wunderground v.1.12,2013-02-27 06:18:00,
2013-02-27 01:20:00,32.7,18.7,29.99,East,90,8.0,17.0,56,0.00,,,0.00,Wunderground v.1.12,2013-02-27 06:20:00,
2013-02-27 01:24:00,33.1,32.6,29.45,East,88,2.0,5.0,98,0.00,,,0.45,Wunderground v.1.12,2013-02-27 06:24:00,
2013-02-27 01:25:00,32.7,18.7,29.99,East,90,8.0,17.0,56,0.00,,,0.00,Wunderground v.1.12,2013-02-27 06:25:00,
2013-02-27 01:30:00,33.1,32.6,29.45,East,93,5.0,5.0,98,0.00,,,0.45,Wunderground v.1.12,2013-02-27 06:30:00,
2013-02-27 01:35:00,32.7,18.7,29.99,East,90,8.0,17.0,56,0.00,,,0.00,Wunderground v.1.12,2013-02-27 06:35:00,
2013-02-27 01:36:00,32.9,32.4,29.45,ENE,77,6.0,6.0,98,0.00,,,0.45,Wunderground v.1.12,2013-02-27 06:36:00,
2013-02-27 01:40:00,32.7,18.7,29.99,East,90,8.0,17.0,56,0.00,,,0.00,Wunderground v.1.12,2013-02-27 06:40:00,
2013-02-27 01:41:00,33.1,32.6,29.44,East,88,4.0,4.0,98,0.00,,,0.45,Wunderground v.1.12,2013-02-27 06:41:00,
2013-02-27 01:45:00,33.5,19.9,29.99,East,90,7.0,18.0,57,0.00,,,0.00,Wunderground v.1.12,2013-02-27 06:45:00,
2013-02-27 01:47:00,33.1,32.6,29.44,East,83,3.0,4.0,98,0.00,,,0.45,Wunderground v.1.12,2013-02-27 06:47:00,
2013-02-27 01:50:00,33.5,19.9,29.99,East,90,7.0,18.0,57,0.00,,,0.00,Wunderground v.1.12,2013-02-27 06:50:00,
2013-02-27 01:52:00,33.1,32.6,29.44,East,80,2.0,6.0,98,0.00,,,0.45,Wunderground v.1.12,2013-02-27 06:52:00,
2013-02-27 01:55:00,33.5,19.9,29.99,East,90,7.0,18.0,57,0.00,,,0.00,Wunderground v.1.12,2013-02-27 06:55:00,
2013-02-27 01:58:00,33.2,32.7,29.44,ENE,69,3.0,7.0,98,0.00,,,0.45,Wunderground v.1.12,2013-02-27 06:58:00,
2013-02-27 02:00:00,33.5,19.9,29.99,East,90,7.0,18.0,57,0.00,,,0.00,Wunderground v.1.12,2013-02-27 07:00:00,
2013-02-27 02:03:00,33.2,32.7,29.44,East,81,6.0,7.0,98,0.00,,,0.45,Wunderground v.1.12,2013-02-27 07:03:00,
2013-02-27 02:05:00,33.5,19.9,29.99,East,90,7.0,18.0,57,0.00,,,0.00,Wunderground v.1.12,2013-02-27 07:05:00,
2013-02-27 02:09:00,33.2,32.7,29.44,ESE,103,0.0,5.0,98,0.00,,,0.45,Wunderground v.1.12,2013-02-27 07:09:00,
2013-02-27 02:10:00,33.5,19.9,29.99,East,90,7.0,18.0,57,0.00,,,0.00,Wunderground v.1.12,2013-02-27 07:10:00,
2013-02-27 02:14:00,33.2,32.7,29.44,ENE,71,6.0,9.0,98,0.00,,,0.45,Wunderground v.1.12,2013-02-27 07:14:00,
2013-02-27 02:15:00,33.8,20.2,29.97,East,90,7.0,17.0,57,0.00,,,0.00,Wunderground v.1.12,2013-02-27 07:15:00,
2013-02-27 02:19:00,33.1,32.6,29.44,East,88,3.0,6.0,98,0.00,,,0.45,Wunderground v.1.12,2013-02-27 07:19:00,
2013-02-27 02:20:00,33.8,20.2,29.97,East,90,7.0,17.0,57,0.00,,,0.00,Wunderground v.1.12,2013-02-27 07:20:00,
2013-02-27 02:24:00,33.1,32.6,29.44,ENE,61,2.0,4.0,98,0.00,,,0.45,Wunderground v.1.12,2013-02-27 07:24:00,
2013-02-27 02:25:00,33.8,20.2,29.97,East,90,7.0,17.0,57,0.00,,,0.00,Wunderground v.1.12,2013-02-27 07:25:00,
2013-02-27 02:29:00,32.9,32.4,29.44,ENE,64,0.0,6.0,98,0.00,,,0.45,Wunderground v.1.12,2013-02-27 07:29:00,
2013-02-27 02:30:00,33.8,20.2,29.97,East,90,7.0,17.0,57,0.00,,,0.00,Wunderground v.1.12,2013-02-27 07:30:00,
2013-02-27 02:34:00,32.9,32.4,29.44,East,84,6.0,6.0,98,0.00,,,0.45,Wunderground v.1.12,2013-02-27 07:34:00,
2013-02-27 02:35:00,33.8,20.2,29.97,East,90,7.0,17.0,57,0.00,,,0.00,Wunderground v.1.12,2013-02-27 07:35:00,
2013-02-27 02:39:00,32.9,32.4,29.44,ENE,69,0.0,7.0,98,0.00,,,0.45,Wunderground v.1.12,2013-02-27 07:39:00,
2013-02-27 02:40:00,33.8,20.2,29.97,East,90,7.0,17.0,57,0.00,,,0.00,Wunderground v.1.12,2013-02-27 07:40:00,
2013-02-27 02:44:00,32.8,32.3,29.43,NE,50,0.0,5.0,98,0.00,,,0.45,Wunderground v.1.12,2013-02-27 07:44:00,
2013-02-27 02:45:00,34.4,21.9,29.96,East,90,7.0,16.0,60,0.00,,,0.00,Wunderground v.1.12,2013-02-27 07:45:00,
2013-02-27 02:49:00,32.8,32.3,29.43,ENE,65,3.0,4.0,98,0.00,,,0.45,Wunderground v.1.12,2013-02-27 07:49:00,
2013-02-27 02:50:00,34.4,21.9,29.96,East,90,7.0,16.0,60,0.00,,,0.00,Wunderground v.1.12,2013-02-27 07:50:00,
2013-02-27 02:54:00,32.8,32.3,29.43,ENE,64,3.0,5.0,98,0.00,,,0.45,Wunderground v.1.12,2013-02-27 07:54:00,
2013-02-27 02:55:00,34.4,21.9,29.96,East,90,7.0,16.0,60,0.00,,,0.00,Wunderground v.1.12,2013-02-27 07:55:00,
2013-02-27 02:59:00,32.7,32.2,29.43,ENE,65,0.0,5.0,98,0.00,,,0.45,Wunderground v.1.12,2013-02-27 07:59:00,
2013-02-27 03:00:00,34.4,21.9,29.96,East,90,7.0,16.0,60,0.00,,,0.00,Wunderground v.1.12,2013-02-27 08:00:00,
2013-02-27 03:04:00,32.7,32.2,29.43,ENE,57,4.0,5.0,98,0.00,,,0.45,Wunderground v.1.12,2013-02-27 08:04:00,
2013-02-27 03:05:00,34.4,21.9,29.96,East,90,7.0,16.0,60,0.00,,,0.00,Wunderground v.1.12,2013-02-27 08:05:00,
2013-02-27 03:09:00,32.7,32.2,29.43,East,80,3.0,5.0,98,0.00,,,0.45,Wunderground v.1.12,2013-02-27 08:09:00,
2013-02-27 03:10:00,34.4,21.9,29.96,East,90,7.0,16.0,60,0.00,,,0.00,Wunderground v.1.12,2013-02-27 08:10:00,
2013-02-27 03:14:00,32.7,32.2,29.42,ENE,78,4.0,4.0,98,0.00,,,0.45,Wunderground v.1.12,2013-02-27 08:14:00,
2013-02-27 03:15:00,34.9,21.6,29.94,ENE,68,8.0,15.0,58,0.00,,,0.00,Wunderground v.1.12,2013-02-27 08:15:00,
2013-02-27 03:19:00,32.7,32.2,29.42,ENE,78,3.0,4.0,98,0.00,,,0.45,Wunderground v.1.12,2013-02-27 08:19:00,
2013-02-27 03:20:00,34.9,21.6,29.94,ENE,68,8.0,15.0,58,0.00,,,0.00,Wunderground v.1.12,2013-02-27 08:20:00,
2013-02-27 03:24:00,32.7,32.2,29.42,ENE,63,0.0,5.0,98,0.00,,,0.46,Wunderground v.1.12,2013-02-27 08:24:00,
2013-02-27 03:25:00,34.9,21.6,29.94,ENE,68,8.0,15.0,58,0.00,,,0.00,Wunderground v.1.12,2013-02-27 08:25:00,
2013-02-27 03:29:00,32.7,32.2,29.42,ENE,62,0.0,5.0,98,0.00,,,0.46,Wunderground v.1.12,2013-02-27 08:29:00,
2013-02-27 03:30:00,34.9,21.6,29.94,ENE,68,8.0,15.0,58,0.00,,,0.00,Wunderground v.1.12,2013-02-27 08:30:00,
2013-02-27 03:35:00,32.7,32.2,29.42,ENE,62,1.0,1.0,98,0.00,,,0.46,Wunderground v.1.12,2013-02-27 08:35:00,
2013-02-27 03:40:00,32.7,32.2,29.42,ENE,62,0.0,1.0,98,0.00,,,0.46,Wunderground v.1.12,2013-02-27 08:40:00,
2013-02-27 03:45:00,32.7,32.2,29.41,ENE,62,0.0,1.0,98,0.00,,,0.46,Wunderground v.1.12,2013-02-27 08:45:00,
2013-02-27 03:50:00,32.7,32.2,29.41,NE,51,1.0,1.0,98,0.00,,,0.46,Wunderground v.1.12,2013-02-27 08:50:00,
2013-02-27 03:55:00,32.7,32.2,29.41,ENE,62,0.0,1.0,98,0.00,,,0.46,Wunderground v.1.12,2013-02-27 08:55:00,
2013-02-27 04:00:00,32.7,32.2,29.41,ENE,61,0.0,0.0,98,0.00,,,0.46,Wunderground v.1.12,2013-02-27 09:00:00,
2013-02-27 04:05:00,32.8,32.3,29.41,ENE,61,0.0,1.0,98,0.00,,,0.46,Wunderground v.1.12,2013-02-27 09:05:00,
2013-02-27 04:10:00,32.8,32.3,29.41,ENE,61,0.0,1.0,98,0.00,,,0.46,Wunderground v.1.12,2013-02-27 09:10:00,
2013-02-27 04:15:00,32.8,32.3,29.41,ENE,61,0.0,0.0,98,0.00,,,0.46,Wunderground v.1.12,2013-02-27 09:15:00,
2013-02-27 04:20:00,32.8,32.3,29.41,ENE,61,3.0,3.0,98,0.00,,,0.46,Wunderground v.1.12,2013-02-27 09:20:00,
2013-02-27 04:25:00,32.8,32.3,29.41,ENE,58,0.0,2.0,98,0.00,,,0.46,Wunderground v.1.12,2013-02-27 09:25:00,
2013-02-27 04:30:00,32.8,32.3,29.42,ENE,57,0.0,1.0,98,0.00,,,0.46,Wunderground v.1.12,2013-02-27 09:30:00,
2013-02-27 04:35:00,32.8,32.3,29.42,ENE,57,0.0,0.0,98,0.00,,,0.46,Wunderground v.1.12,2013-02-27 09:35:00,
2013-02-27 04:40:00,32.9,32.4,29.42,ENE,57,0.0,0.0,98,0.00,,,0.46,Wunderground v.1.12,2013-02-27 09:40:00,
2013-02-27 04:45:00,36.0,21.8,29.88,East,90,9.0,21.0,56,0.00,,,0.00,Wunderground v.1.12,2013-02-27 09:45:00,
2013-02-27 04:46:00,32.9,32.4,29.42,ENE,57,0.0,0.0,98,0.00,,,0.46,Wunderground v.1.12,2013-02-27 09:46:00,
2013-02-27 04:50:00,36.0,21.8,29.88,East,90,9.0,21.0,56,0.00,,,0.00,Wunderground v.1.12,2013-02-27 09:50:00,
2013-02-27 04:51:00,32.9,32.4,29.42,ENE,57,0.0,0.0,98,0.00,,,0.46,Wunderground v.1.12,2013-02-27 09:51:00,
2013-02-27 04:55:00,36.0,21.8,29.88,East,90,9.0,21.0,56,0.00,,,0.00,Wunderground v.1.12,2013-02-27 09:55:00,
2013-02-27 04:56:00,32.9,32.4,29.42,ENE,57,0.0,0.0,98,0.00,,,0.46,Wunderground v.1.12,2013-02-27 09:56:00,
2013-02-27 05:00:00,36.0,21.8,29.88,East,90,9.0,21.0,56,0.00,,,0.00,Wunderground v.1.12,2013-02-27 10:00:00,
2013-02-27 05:01:00,32.9,32.4,29.42,ENE,57,0.0,0.0,98,0.00,,,0.46,Wunderground v.1.12,2013-02-27 10:01:00,
2013-02-27 05:05:00,36.0,21.8,29.88,East,90,9.0,21.0,56,0.00,,,0.00,Wunderground v.1.12,2013-02-27 10:05:00,
2013-02-27 05:07:00,32.9,32.4,29.42,ENE,57,0.0,0.0,98,0.00,,,0.46,Wunderground v.1.12,2013-02-27 10:07:00,
2013-02-27 05:10:00,36.0,21.8,29.88,East,90,9.0,21.0,56,0.00,,,0.00,Wunderground v.1.12,2013-02-27 10:10:00,
2013-02-27 05:12:00,32.9,32.4,29.42,ENE,57,0.0,0.0,98,0.00,,,0.46,Wunderground v.1.12,2013-02-27 10:12:00,
2013-02-27 05:15:00,35.6,22.3,29.86,East,90,8.0,17.0,58,0.00,,,0.00,Wunderground v.1.12,2013-02-27 10:15:00,
2013-02-27 05:17:00,32.9,32.4,29.42,ENE,57,0.0,0.0,98,0.00,,,0.46,Wunderground v.1.12,2013-02-27 10:17:00,
2013-02-27 05:20:00,35.6,22.3,29.86,East,90,8.0,17.0,58,0.00,,,0.00,Wunderground v.1.12,2013-02-27 10:20:00,
2013-02-27 05:22:00,32.9,32.4,29.42,ENE,57,0.0,0.0,98,0.00,,,0.46,Wunderground v.1.12,2013-02-27 10:22:00,
2013-02-27 05:25:00,35.6,22.3,29.86,East,90,8.0,17.0,58,0.00,,,0.00,Wunderground v.1.12,2013-02-27 10:25:00,
2013-02-27 05:27:00,32.9,32.4,29.42,ENE,57,0.0,0.0,98,0.00,,,0.46,Wunderground v.1.12,2013-02-27 10:27:00,
2013-02-27 05:30:00,35.6,22.3,29.86,East,90,8.0,17.0,58,0.00,,,0.00,Wunderground v.1.12,2013-02-27 10:30:00,
2013-02-27 05:32:00,32.9,32.4,29.42,ENE,57,0.0,0.0,98,0.00,,,0.46,Wunderground v.1.12,2013-02-27 10:32:00,
2013-02-27 05:35:00,35.6,22.3,29.86,East,90,8.0,17.0,58,0.00,,,0.00,Wunderground v.1.12,2013-02-27 10:35:00,
2013-02-27 05:37:00,32.9,32.4,29.42,ENE,57,0.0,0.0,98,0.00,,,0.46,Wunderground v.1.12,2013-02-27 10:37:00,
2013-02-27 05:40:00,35.6,22.3,29.86,East,90,8.0,17.0,58,0.00,,,0.00,Wunderground v.1.12,2013-02-27 10:40:00,
2013-02-27 05:42:00,32.9,32.4,29.42,ENE,57,0.0,0.0,98,0.00,,,0.46,Wunderground v.1.12,2013-02-27 10:42:00,
2013-02-27 05:45:00,36.0,23.0,29.85,ENE,68,7.0,18.0,59,0.00,,,0.00,Wunderground v.1.12,2013-02-27 10:45:00,
2013-02-27 05:47:00,32.9,32.4,29.42,ENE,57,0.0,0.0,98,0.00,,,0.46,Wunderground v.1.12,2013-02-27 10:47:00,
2013-02-27 05:50:00,36.0,23.0,29.85,ENE,68,7.0,18.0,59,0.00,,,0.00,Wunderground v.1.12,2013-02-27 10:50:00,
2013-02-27 05:52:00,32.9,32.4,29.42,ENE,57,0.0,0.0,98,0.00,,,0.46,Wunderground v.1.12,2013-02-27 10:52:00,
2013-02-27 05:55:00,36.0,23.0,29.85,ENE,68,7.0,18.0,59,0.00,,,0.00,Wunderground v.1.12,2013-02-27 10:55:00,
2013-02-27 05:57:00,32.9,32.4,29.43,ENE,57,0.0,0.0,98,0.00,,,0.46,Wunderground v.1.12,2013-02-27 10:57:00,
2013-02-27 06:00:00,36.0,23.0,29.85,ENE,68,7.0,18.0,59,0.00,,,0.00,Wunderground v.1.12,2013-02-27 11:00:00,
2013-02-27 06:03:00,32.9,32.4,29.43,ENE,57,0.0,0.0,98,0.00,,,0.46,Wunderground v.1.12,2013-02-27 11:03:00,
2013-02-27 06:05:00,36.0,23.0,29.85,ENE,68,7.0,18.0,59,0.00,,,0.00,Wunderground v.1.12,2013-02-27 11:05:00,
2013-02-27 06:08:00,32.9,32.4,29.43,ENE,57,0.0,0.0,98,0.00,,,0.46,Wunderground v.1.12,2013-02-27 11:08:00,
2013-02-27 06:10:00,36.0,23.0,29.85,ENE,68,7.0,18.0,59,0.00,,,0.00,Wunderground v.1.12,2013-02-27 11:10:00,
2013-02-27 06:13:00,33.1,32.6,29.43,ENE,57,0.0,0.0,98,0.00,,,0.46,Wunderground v.1.12,2013-02-27 11:13:00,
2013-02-27 06:15:00,35.5,23.0,29.83,East,90,8.0,18.0,60,0.00,,,0.00,Wunderground v.1.12,2013-02-27 11:15:00,
2013-02-27 06:19:00,33.1,32.6,29.43,ENE,57,0.0,0.0,98,0.00,,,0.46,Wunderground v.1.12,2013-02-27 11:19:00,
2013-02-27 06:20:00,35.5,23.0,29.83,East,90,8.0,18.0,60,0.00,,,0.00,Wunderground v.1.12,2013-02-27 11:20:00,
2013-02-27 06:24:00,32.9,32.4,29.43,ENE,57,0.0,0.0,98,0.00,,,0.46,Wunderground v.1.12,2013-02-27 11:24:00,
2013-02-27 06:29:00,32.9,32.4,29.43,ENE,57,0.0,0.0,98,0.00,,,0.46,Wunderground v.1.12,2013-02-27 11:29:00,
2013-02-27 06:30:00,35.5,23.0,29.83,East,90,8.0,18.0,60,0.00,,,0.00,Wunderground v.1.12,2013-02-27 11:30:00,
2013-02-27 06:34:00,32.9,32.4,29.43,ENE,57,0.0,0.0,98,0.00,,,0.46,Wunderground v.1.12,2013-02-27 11:34:00,
2013-02-27 06:35:00,35.5,23.0,29.83,East,90,8.0,18.0,60,0.00,,,0.00,Wunderground v.1.12,2013-02-27 11:35:00,
2013-02-27 06:39:00,32.9,32.4,29.43,ENE,57,0.0,0.0,98,0.00,,,0.47,Wunderground v.1.12,2013-02-27 11:39:00,
2013-02-27 06:44:00,32.9,32.4,29.43,ENE,57,0.0,0.0,98,0.00,,,0.47,Wunderground v.1.12,2013-02-27 11:44:00,
2013-02-27 06:45:00,34.1,23.2,29.82,East,90,9.0,18.0,64,0.00,,,0.00,Wunderground v.1.12,2013-02-27 11:45:00,
2013-02-27 06:49:00,32.9,32.4,29.43,ENE,57,0.0,0.0,98,0.00,,,0.47,Wunderground v.1.12,2013-02-27 11:49:00,
2013-02-27 06:50:00,34.1,23.2,29.82,East,90,9.0,18.0,64,0.00,,,0.00,Wunderground v.1.12,2013-02-27 11:50:00,
2013-02-27 06:54:00,32.9,32.4,29.43,ENE,57,0.0,0.0,98,0.00,,,0.47,Wunderground v.1.12,2013-02-27 11:54:00,
2013-02-27 06:55:00,34.1,23.2,29.82,East,90,9.0,18.0,64,0.00,,,0.00,Wunderground v.1.12,2013-02-27 11:55:00,
2013-02-27 06:59:00,32.9,32.4,29.44,ENE,57,0.0,0.0,98,0.00,,,0.47,Wunderground v.1.12,2013-02-27 11:59:00,
2013-02-27 07:00:00,34.1,23.2,29.82,East,90,9.0,18.0,64,0.00,,,0.00,Wunderground v.1.12,2013-02-27 12:00:00,
2013-02-27 07:04:00,32.9,32.4,29.44,ENE,57,0.0,0.0,98,0.00,,,0.47,Wunderground v.1.12,2013-02-27 12:04:00,
2013-02-27 07:05:00,34.1,23.2,29.82,East,90,9.0,18.0,64,0.00,,,0.00,Wunderground v.1.12,2013-02-27 12:05:00,
2013-02-27 07:09:00,32.9,32.4,29.44,ENE,57,0.0,0.0,98,0.00,,,0.47,Wunderground v.1.12,2013-02-27 12:09:00,
2013-02-27 07:10:00,34.1,23.2,29.82,East,90,9.0,18.0,64,0.00,,,0.00,Wunderground v.1.12,2013-02-27 12:10:00,
2013-02-27 07:14:00,32.9,32.4,29.44,ENE,57,0.0,0.0,98,0.00,,,0.47,Wunderground v.1.12,2013-02-27 12:14:00,
2013-02-27 07:15:00,33.5,23.7,29.82,East,90,9.0,20.0,67,0.00,,,0.00,Wunderground v.1.12,2013-02-27 12:15:00,
2013-02-27 07:19:00,33.1,32.6,29.44,ENE,57,0.0,0.0,98,0.00,,,0.47,Wunderground v.1.12,2013-02-27 12:19:00,
2013-02-27 07:20:00,33.5,23.7,29.82,East,90,9.0,20.0,67,0.00,,,0.00,Wunderground v.1.12,2013-02-27 12:20:00,
2013-02-27 07:24:00,33.1,32.6,29.44,ENE,57,0.0,0.0,98,0.00,,,0.47,Wunderground v.1.12,2013-02-27 12:24:00,
2013-02-27 07:25:00,33.5,23.7,29.82,East,90,9.0,20.0,67,0.00,,,0.00,Wunderground v.1.12,2013-02-27 12:25:00,
2013-02-27 07:29:00,33.1,32.6,29.45,ENE,57,0.0,0.0,98,0.00,,,0.47,Wunderground v.1.12,2013-02-27 12:29:00,
2013-02-27 07:30:00,33.5,23.7,29.82,East,90,9.0,20.0,67,0.00,,,0.00,Wunderground v.1.12,2013-02-27 12:30:00,
2013-02-27 07:34:00,33.1,32.6,29.45,ENE,57,0.0,1.0,98,0.00,,,0.47,Wunderground v.1.12,2013-02-27 12:34:00,
2013-02-27 07:35:00,33.5,23.7,29.82,East,90,9.0,20.0,67,0.00,,,0.00,Wunderground v.1.12,2013-02-27 12:35:00,
2013-02-27 07:39:00,33.2,32.7,29.45,ENE,57,0.0,0.0,98,0.00,,,0.47,Wunderground v.1.12,2013-02-27 12:39:00,
2013-02-27 07:40:00,33.5,23.7,29.82,East,90,9.0,20.0,67,0.00,,,0.00,Wunderground v.1.12,2013-02-27 12:40:00,
2013-02-27 07:44:00,33.2,32.7,29.45,ENE,57,0.0,0.0,98,0.00,,,0.47,Wunderground v.1.12,2013-02-27 12:44:00,
2013-02-27 07:45:00,33.4,24.3,29.81,East,90,8.0,16.0,69,0.00,,,0.00,Wunderground v.1.12,2013-02-27 12:45:00,
2013-02-27 07:49:00,33.4,32.9,29.45,ENE,57,0.0,0.0,98,0.00,,,0.47,Wunderground v.1.12,2013-02-27 12:49:00,
2013-02-27 07:50:00,33.4,24.3,29.81,East,90,8.0,16.0,69,0.00,,,0.00,Wunderground v.1.12,2013-02-27 12:50:00,
2013-02-27 07:54:00,33.5,33.0,29.45,ENE,57,2.0,3.0,98,0.00,,,0.47,Wunderground v.1.12,2013-02-27 12:54:00,
2013-02-27 07:55:00,33.4,24.3,29.81,East,90,8.0,16.0,69,0.00,,,0.00,Wunderground v.1.12,2013-02-27 12:55:00,
2013-02-27 07:59:00,33.5,33.0,29.46,South,181,4.0,4.0,98,0.00,,,0.47,Wunderground v.1.12,2013-02-27 12:59:00,
2013-02-27 08:00:00,33.4,24.3,29.81,East,90,8.0,16.0,69,0.00,,,0.00,Wunderground v.1.12,2013-02-27 13:00:00,
2013-02-27 08:04:00,33.7,33.2,29.46,SSW,213,1.0,5.0,98,0.00,,,0.47,Wunderground v.1.12,2013-02-27 13:04:00,
2013-02-27 08:05:00,33.4,24.3,29.81,East,90,8.0,16.0,69,0.00,,,0.00,Wunderground v.1.12,2013-02-27 13:05:00,
2013-02-27 08:09:00,33.7,33.2,29.46,SSW,213,2.0,4.0,98,0.00,,,0.47,Wunderground v.1.12,2013-02-27 13:09:00,
2013-02-27 08:10:00,33.4,24.3,29.81,East,90,8.0,16.0,69,0.00,,,0.00,Wunderground v.1.12,2013-02-27 13:10:00,
2013-02-27 08:14:00,33.7,33.2,29.47,SW,215,2.0,6.0,98,0.00,,,0.47,Wunderground v.1.12,2013-02-27 13:14:00,
2013-02-27 08:15:00,32.7,24.3,29.83,East,90,6.0,15.0,71,0.00,,,0.00,Wunderground v.1.12,2013-02-27 13:15:00,
2013-02-27 08:19:00,33.7,33.2,29.47,SW,220,2.0,6.0,98,0.00,,,0.47,Wunderground v.1.12,2013-02-27 13:19:00,
2013-02-27 08:20:00,32.7,24.3,29.83,East,90,6.0,15.0,71,0.00,,,0.00,Wunderground v.1.12,2013-02-27 13:20:00,
2013-02-27 08:24:00,33.7,33.2,29.47,SW,219,2.0,5.0,98,0.00,,,0.47,Wunderground v.1.12,2013-02-27 13:24:00,
2013-02-27 08:25:00,32.7,24.3,29.83,East,90,6.0,15.0,71,0.00,,,0.00,Wunderground v.1.12,2013-02-27 13:25:00,
2013-02-27 08:29:00,33.7,33.2,29.48,SW,229,5.0,7.0,98,0.00,,,0.47,Wunderground v.1.12,2013-02-27 13:29:00,
2013-02-27 08:30:00,32.7,24.3,29.83,East,90,6.0,15.0,71,0.00,,,0.00,Wunderground v.1.12,2013-02-27 13:30:00,
2013-02-27 08:35:00,33.7,33.2,29.48,SW,229,4.0,4.0,98,0.00,,,0.47,Wunderground v.1.12,2013-02-27 13:35:00,
2013-02-27 08:40:00,33.7,33.2,29.48,SW,224,5.0,5.0,98,0.00,,,0.48,Wunderground v.1.12,2013-02-27 13:40:00,
2013-02-27 08:45:00,33.7,33.2,29.48,SW,220,2.0,3.0,98,0.00,,,0.48,Wunderground v.1.12,2013-02-27 13:45:00,
2013-02-27 08:50:00,33.7,33.2,29.48,SW,221,5.0,5.0,98,0.00,,,0.48,Wunderground v.1.12,2013-02-27 13:50:00,
2013-02-27 08:55:00,33.7,33.2,29.48,SW,218,5.0,5.0,98,0.00,,,0.48,Wunderground v.1.12,2013-02-27 13:55:00,
2013-02-27 09:00:00,33.7,33.2,29.49,SW,217,4.0,5.0,98,0.00,,,0.48,Wunderground v.1.12,2013-02-27 14:00:00,
2013-02-27 09:05:00,33.8,33.3,29.49,SW,217,5.0,5.0,98,0.00,,,0.48,Wunderground v.1.12,2013-02-27 14:05:00,
2013-02-27 09:10:00,33.8,33.3,29.49,SW,217,5.0,5.0,98,0.00,,,0.48,Wunderground v.1.12,2013-02-27 14:10:00,
2013-02-27 09:15:00,33.8,33.3,29.48,SW,218,4.0,5.0,98,0.00,,,0.48,Wunderground v.1.12,2013-02-27 14:15:00,
2013-02-27 09:20:00,33.8,33.3,29.48,SW,216,4.0,6.0,98,0.00,,,0.48,Wunderground v.1.12,2013-02-27 14:20:00,
2013-02-27 09:25:00,34.0,33.5,29.48,SW,222,2.0,4.0,98,0.00,,,0.49,Wunderground v.1.12,2013-02-27 14:25:00,
2013-02-27 09:30:00,34.0,33.5,29.49,SW,217,5.0,5.0,98,0.00,,,0.49,Wunderground v.1.12,2013-02-27 14:30:00,
2013-02-27 09:35:00,34.0,33.5,29.49,SW,216,6.0,6.0,98,0.00,,,0.49,Wunderground v.1.12,2013-02-27 14:35:00,
2013-02-27 09:40:00,34.0,33.5,29.49,SW,217,2.0,4.0,98,0.04,,,0.50,Wunderground v.1.12,2013-02-27 14:40:00,
2013-02-27 09:45:00,34.1,33.6,29.49,SW,216,2.0,7.0,98,0.04,,,0.00,Wunderground v.1.12,2013-02-27 14:45:00,
2013-02-27 09:50:00,34.1,33.6,29.49,SW,216,2.0,7.0,98,0.04,,,0.00,Wunderground v.1.12,2013-02-27 14:50:00,
2013-02-27 09:55:00,34.1,33.6,29.49,SSW,211,4.0,8.0,98,0.00,,,0.00,Wunderground v.1.12,2013-02-27 14:55:00,
2013-02-27 10:00:00,34.3,33.8,29.49,SSW,210,0.0,4.0,98,0.00,,,0.01,Wunderground v.1.12,2013-02-27 15:00:00,
2013-02-27 10:05:00,34.3,33.8,29.49,SSW,213,5.0,5.0,98,0.00,,,0.01,Wunderground v.1.12,2013-02-27 15:05:00,
2013-02-27 10:10:00,34.3,33.8,29.49,SW,223,5.0,7.0,98,0.05,,,0.02,Wunderground v.1.12,2013-02-27 15:10:00,
2013-02-27 10:15:00,31.0,23.7,29.81,N/A,-737280,0.0,0.0,74,0.00,,,0.00,Wunderground v.1.12,2013-02-27 15:15:00,
2013-02-27 10:16:00,34.4,33.9,29.49,SW,221,5.0,6.0,98,0.05,,,0.02,Wunderground v.1.12,2013-02-27 15:16:00,
2013-02-27 10:20:00,31.0,23.7,29.81,N/A,-737280,0.0,0.0,74,0.00,,,0.00,Wunderground v.1.12,2013-02-27 15:20:00,
2013-02-27 10:21:00,34.4,33.9,29.49,SW,232,6.0,9.0,98,0.05,,,0.02,Wunderground v.1.12,2013-02-27 15:21:00,
2013-02-27 10:25:00,31.0,23.7,29.81,N/A,-737280,0.0,0.0,74,0.00,,,0.00,Wunderground v.1.12,2013-02-27 15:25:00,
2013-02-27 10:26:00,34.4,33.9,29.49,SW,217,7.0,7.0,98,0.04,,,0.03,Wunderground v.1.12,2013-02-27 15:26:00,
2013-02-27 10:30:00,31.0,23.7,29.81,N/A,-737280,0.0,0.0,74,0.00,,,0.00,Wunderground v.1.12,2013-02-27 15:30:00,
2013-02-27 10:32:00,34.4,33.9,29.49,SW,216,5.0,8.0,98,0.04,,,0.03,Wunderground v.1.12,2013-02-27 15:32:00,
2013-02-27 10:35:00,31.0,23.7,29.81,N/A,-737280,0.0,0.0,74,0.00,,,0.00,Wunderground v.1.12,2013-02-27 15:35:00,
2013-02-27 10:37:00,34.4,33.9,29.49,SSW,212,2.0,11.0,98,0.06,,,0.04,Wunderground v.1.12,2013-02-27 15:37:00,
2013-02-27 10:40:00,31.0,23.7,29.81,N/A,-737280,0.0,0.0,74,0.00,,,0.00,Wunderground v.1.12,2013-02-27 15:40:00,
2013-02-27 10:42:00,34.6,34.1,29.49,SW,221,7.0,8.0,98,0.06,,,0.04,Wunderground v.1.12,2013-02-27 15:42:00,
2013-02-27 10:45:00,30.1,22.8,29.81,N/A,-737280,0.0,0.0,74,0.00,,,0.00,Wunderground v.1.12,2013-02-27 15:45:00,
2013-02-27 10:47:00,34.6,34.1,29.49,SW,221,4.0,7.0,98,0.05,,,0.05,Wunderground v.1.12,2013-02-27 15:47:00,
2013-02-27 10:50:00,30.1,22.8,29.81,N/A,-737280,0.0,0.0,74,0.00,,,0.00,Wunderground v.1.12,2013-02-27 15:50:00,
2013-02-27 10:52:00,34.6,34.1,29.49,SW,218,7.0,11.0,98,0.05,,,0.05,Wunderground v.1.12,2013-02-27 15:52:00,
2013-02-27 10:55:00,30.1,22.8,29.81,N/A,-737280,0.0,0.0,74,0.00,,,0.00,Wunderground v.1.12,2013-02-27 15:55:00,
2013-02-27 10:57:00,34.6,34.1,29.49,SSW,212,5.0,13.0,98,0.06,,,0.06,Wunderground v.1.12,2013-02-27 15:57:00,
2013-02-27 11:00:00,30.1,22.8,29.81,N/A,-737280,0.0,0.0,74,0.00,,,0.00,Wunderground v.1.12,2013-02-27 16:00:00,
2013-02-27 11:02:00,34.7,34.2,29.49,SW,218,2.0,8.0,98,0.06,,,0.06,Wunderground v.1.12,2013-02-27 16:02:00,
2013-02-27 11:05:00,30.1,22.8,29.81,N/A,-737280,0.0,0.0,74,0.00,,,0.00,Wunderground v.1.12,2013-02-27 16:05:00,
2013-02-27 11:07:00,34.6,34.1,29.49,SW,216,4.0,11.0,98,0.06,,,0.06,Wunderground v.1.12,2013-02-27 16:07:00,
2013-02-27 11:10:00,30.1,22.8,29.81,N/A,-737280,0.0,0.0,74,0.00,,,0.00,Wunderground v.1.12,2013-02-27 16:10:00,
2013-02-27 11:12:00,34.6,34.1,29.50,SW,214,5.0,6.0,98,0.05,,,0.07,Wunderground v.1.12,2013-02-27 16:12:00,
2013-02-27 11:15:00,29.3,22.4,29.81,N/A,-737280,0.0,0.0,75,0.00,,,0.00,Wunderground v.1.12,2013-02-27 16:15:00,
2013-02-27 11:17:00,34.6,34.1,29.50,SW,221,0.0,11.0,98,0.05,,,0.07,Wunderground v.1.12,2013-02-27 16:17:00,
2013-02-27 11:20:00,29.3,22.4,29.81,N/A,-737280,0.0,0.0,75,0.00,,,0.00,Wunderground v.1.12,2013-02-27 16:20:00,
2013-02-27 11:22:00,34.6,34.1,29.50,SW,225,8.0,9.0,98,0.05,,,0.08,Wunderground v.1.12,2013-02-27 16:22:00,
2013-02-27 11:25:00,29.3,22.4,29.81,N/A,-737280,0.0,0.0,75,0.00,,,0.00,Wunderground v.1.12,2013-02-27 16:25:00,
2013-02-27 11:27:00,34.6,34.1,29.50,SW,214,6.0,11.0,98,0.05,,,0.08,Wunderground v.1.12,2013-02-27 16:27:00,
2013-02-27 11:30:00,29.3,22.4,29.81,N/A,-737280,0.0,0.0,75,0.00,,,0.00,Wunderground v.1.12,2013-02-27 16:30:00,
2013-02-27 11:32:00,34.6,34.1,29.50,SW,224,6.0,8.0,98,0.05,,,0.08,Wunderground v.1.12,2013-02-27 16:32:00,
2013-02-27 11:35:00,29.3,22.4,29.81,N/A,-737280,0.0,0.0,75,0.00,,,0.00,Wunderground v.1.12,2013-02-27 16:35:00,
2013-02-27 11:37:00,34.6,34.1,29.50,SW,225,6.0,9.0,98,0.05,,,0.09,Wunderground v.1.12,2013-02-27 16:37:00,
2013-02-27 11:40:00,29.3,22.4,29.81,N/A,-737280,0.0,0.0,75,0.00,,,0.00,Wunderground v.1.12,2013-02-27 16:40:00,
2013-02-27 11:42:00,34.7,33.9,29.50,SW,228,5.0,6.0,97,0.07,,,0.10,Wunderground v.1.12,2013-02-27 16:42:00,
2013-02-27 11:45:00,29.0,22.4,29.81,N/A,-737280,0.0,0.0,76,0.00,,,0.00,Wunderground v.1.12,2013-02-27 16:45:00,
2013-02-27 11:47:00,34.7,33.9,29.50,SW,230,4.0,9.0,97,0.07,,,0.10,Wunderground v.1.12,2013-02-27 16:47:00,
2013-02-27 11:50:00,29.0,22.4,29.81,N/A,-737280,0.0,0.0,76,0.00,,,0.00,Wunderground v.1.12,2013-02-27 16:50:00,
2013-02-27 11:52:00,34.7,33.9,29.50,SSW,200,6.0,7.0,97,0.06,,,0.10,Wunderground v.1.12,2013-02-27 16:52:00,
2013-02-27 11:55:00,29.0,22.4,29.81,N/A,-737280,0.0,0.0,76,0.00,,,0.00,Wunderground v.1.12,2013-02-27 16:55:00,
2013-02-27 11:57:00,34.7,33.9,29.51,SW,218,7.0,12.0,97,0.05,,,0.11,Wunderground v.1.12,2013-02-27 16:57:00,
2013-02-27 12:00:00,29.0,22.4,29.81,N/A,-737280,0.0,0.0,76,0.00,,,0.00,Wunderground v.1.12,2013-02-27 17:00:00,
2013-02-27 12:02:00,34.7,33.9,29.51,SW,228,4.0,9.0,97,0.07,,,0.12,Wunderground v.1.12,2013-02-27 17:02:00,
2013-02-27 12:05:00,29.0,22.4,29.81,N/A,-737280,0.0,0.0,76,0.00,,,0.00,Wunderground v.1.12,2013-02-27 17:05:00,
2013-02-27 12:07:00,34.9,34.1,29.51,SW,229,5.0,8.0,97,0.07,,,0.12,Wunderground v.1.12,2013-02-27 17:07:00,
2013-02-27 12:10:00,29.0,22.4,29.81,N/A,-737280,0.0,0.0,76,0.00,,,0.00,Wunderground v.1.12,2013-02-27 17:10:00,
2013-02-27 12:12:00,34.9,34.1,29.51,SSW,201,6.0,12.0,97,0.07,,,0.13,Wunderground v.1.12,2013-02-27 17:12:00,
2013-02-27 12:15:00,28.8,22.2,29.81,N/A,-737280,0.0,0.0,76,0.00,,,0.00,Wunderground v.1.12,2013-02-27 17:15:00,
2013-02-27 12:17:00,34.9,33.9,29.51,SW,223,2.0,9.0,96,0.08,,,0.13,Wunderground v.1.12,2013-02-27 17:17:00,
2013-02-27 12:20:00,28.8,22.2,29.81,N/A,-737280,0.0,0.0,76,0.00,,,0.00,Wunderground v.1.12,2013-02-27 17:20:00,
2013-02-27 12:23:00,34.9,33.9,29.51,SW,224,7.0,8.0,96,0.08,,,0.14,Wunderground v.1.12,2013-02-27 17:23:00,
2013-02-27 12:25:00,28.8,22.2,29.81,N/A,-737280,0.0,0.0,76,0.00,,,0.00,Wunderground v.1.12,2013-02-27 17:25:00,
2013-02-27 12:28:00,34.9,33.9,29.51,SW,219,6.0,9.0,96,0.06,,,0.15,Wunderground v.1.12,2013-02-27 17:28:00,
2013-02-27 12:30:00,28.8,22.2,29.81,N/A,-737280,0.0,0.0,76,0.00,,,0.00,Wunderground v.1.12,2013-02-27 17:30:00,
2013-02-27 12:33:00,35.0,34.0,29.51,SW,219,5.0,9.0,96,0.06,,,0.15,Wunderground v.1.12,2013-02-27 17:33:00,
2013-02-27 12:35:00,28.8,22.2,29.81,N/A,-737280,0.0,0.0,76,0.00,,,0.00,Wunderground v.1.12,2013-02-27 17:35:00,
2013-02-27 12:39:00,35.0,34.0,29.51,SW,227,4.0,8.0,96,0.08,,,0.16,Wunderground v.1.12,2013-02-27 17:39:00,
2013-02-27 12:40:00,28.8,22.2,29.81,N/A,-737280,0.0,0.0,76,0.00,,,0.00,Wunderground v.1.12,2013-02-27 17:40:00,
2013-02-27 12:44:00,35.0,33.7,29.51,SW,221,8.0,12.0,95,0.06,,,0.16,Wunderground v.1.12,2013-02-27 17:44:00,
2013-02-27 12:45:00,28.7,22.1,29.81,N/A,-737280,0.0,0.0,76,0.00,,,0.00,Wunderground v.1.12,2013-02-27 17:45:00,
2013-02-27 12:49:00,35.0,33.7,29.51,SW,229,5.0,8.0,95,0.06,,,0.17,Wunderground v.1.12,2013-02-27 17:49:00,
2013-02-27 12:50:00,28.7,22.1,29.81,N/A,-737280,0.0,0.0,76,0.00,,,0.00,Wunderground v.1.12,2013-02-27 17:50:00,
2013-02-27 12:54:00,35.0,33.7,29.51,SW,233,4.0,9.0,95,0.08,,,0.18,Wunderground v.1.12,2013-02-27 17:54:00,
2013-02-27 12:55:00,28.7,22.1,29.81,N/A,-737280,0.0,0.0,76,0.00,,,0.00,Wunderground v.1.12,2013-02-27 17:55:00,
2013-02-27 12:59:00,35.2,33.6,29.51,SW,233,7.0,10.0,94,0.08,,,0.18,Wunderground v.1.12,2013-02-27 17:59:00,
2013-02-27 13:00:00,28.7,22.1,29.81,N/A,-737280,0.0,0.0,76,0.00,,,0.00,Wunderground v.1.12,2013-02-27 18:00:00,
2013-02-27 13:04:00,35.2,33.6,29.51,WSW,254,2.0,9.0,94,0.06,,,0.19,Wunderground v.1.12,2013-02-27 18:04:00,
2013-02-27 13:05:00,28.7,22.1,29.81,N/A,-737280,0.0,0.0,76,0.00,,,0.00,Wunderground v.1.12,2013-02-27 18:05:00,
2013-02-27 13:09:00,35.0,33.4,29.51,SW,227,7.0,10.0,94,0.06,,,0.19,Wunderground v.1.12,2013-02-27 18:09:00,
2013-02-27 13:10:00,28.7,22.1,29.81,N/A,-737280,0.0,0.0,76,0.00,,,0.00,Wunderground v.1.12,2013-02-27 18:10:00,
2013-02-27 13:14:00,35.0,33.4,29.51,SW,231,5.0,8.0,94,0.06,,,0.20,Wunderground v.1.12,2013-02-27 18:14:00,
2013-02-27 13:15:00,28.5,21.9,29.82,N/A,-737280,0.0,0.0,76,0.00,,,0.00,Wunderground v.1.12,2013-02-27 18:15:00,
2013-02-27 13:19:00,35.0,33.2,29.51,SW,225,6.0,12.0,93,0.06,,,0.20,Wunderground v.1.12,2013-02-27 18:19:00,
2013-02-27 13:20:00,28.5,21.9,29.82,N/A,-737280,0.0,0.0,76,0.00,,,0.00,Wunderground v.1.12,2013-02-27 18:20:00,
2013-02-27 13:24:00,35.0,33.2,29.51,SW,229,7.0,7.0,93,0.05,,,0.20,Wunderground v.1.12,2013-02-27 18:24:00,
2013-02-27 13:25:00,28.5,21.9,29.82,N/A,-737280,0.0,0.0,76,0.00,,,0.00,Wunderground v.1.12,2013-02-27 18:25:00,
2013-02-27 13:29:00,35.0,33.2,29.51,SW,224,6.0,11.0,93,0.05,,,0.21,Wunderground v.1.12,2013-02-27 18:29:00,
2013-02-27 13:30:00,28.5,21.9,29.82,N/A,-737280,0.0,0.0,76,0.00,,,0.00,Wunderground v.1.12,2013-02-27 18:30:00,
2013-02-27 13:34:00,35.0,32.9,29.51,SW,220,5.0,9.0,92,0.05,,,0.21,Wunderground v.1.12,2013-02-27 18:34:00,
2013-02-27 13:35:00,28.5,21.9,29.82,N/A,-737280,0.0,0.0,76,0.00,,,0.00,Wunderground v.1.12,2013-02-27 18:35:00,
2013-02-27 13:39:00,35.2,33.1,29.51,SW,233,6.0,10.0,92,0.06,,,0.22,Wunderground v.1.12,2013-02-27 18:39:00,
2013-02-27 13:40:00,28.5,21.9,29.82,N/A,-737280,0.0,0.0,76,0.00,,,0.00,Wunderground v.1.12,2013-02-27 18:40:00,
2013-02-27 13:44:00,35.2,33.1,29.50,SW,223,6.0,9.0,92,0.06,,,0.22,Wunderground v.1.12,2013-02-27 18:44:00,
2013-02-27 13:45:00,28.5,21.6,29.81,N/A,-737280,0.0,0.0,75,0.00,,,0.00,Wunderground v.1.12,2013-02-27 18:45:00,
2013-02-27 13:49:00,35.2,33.1,29.50,SW,221,5.0,7.0,92,0.04,,,0.23,Wunderground v.1.12,2013-02-27 18:49:00,
2013-02-27 13:50:00,28.5,21.6,29.81,N/A,-737280,0.0,0.0,75,0.00,,,0.00,Wunderground v.1.12,2013-02-27 18:50:00,
2013-02-27 13:54:00,35.3,33.2,29.50,SW,220,6.0,8.0,92,0.04,,,0.23,Wunderground v.1.12,2013-02-27 18:54:00,
2013-02-27 13:55:00,28.5,21.6,29.81,N/A,-737280,0.0,0.0,75,0.00,,,0.00,Wunderground v.1.12,2013-02-27 18:55:00,
2013-02-27 13:59:00,35.3,32.9,29.50,SW,220,5.0,8.0,91,0.04,,,0.23,Wunderground v.1.12,2013-02-27 18:59:00,
2013-02-27 14:00:00,28.5,21.6,29.81,N/A,-737280,0.0,0.0,75,0.00,,,0.00,Wunderground v.1.12,2013-02-27 19:00:00,
2013-02-27 14:04:00,35.3,32.9,29.50,SW,220,5.0,6.0,91,0.05,,,0.24,Wunderground v.1.12,2013-02-27 19:04:00,
2013-02-27 14:05:00,28.5,21.6,29.81,N/A,-737280,0.0,0.0,75,0.00,,,0.00,Wunderground v.1.12,2013-02-27 19:05:00,
2013-02-27 14:09:00,35.2,32.8,29.50,SW,219,5.0,8.0,91,0.05,,,0.24,Wunderground v.1.12,2013-02-27 19:09:00,
2013-02-27 14:10:00,28.5,21.6,29.81,N/A,-737280,0.0,0.0,75,0.00,,,0.00,Wunderground v.1.12,2013-02-27 19:10:00,
2013-02-27 14:14:00,35.2,32.8,29.50,SSW,208,0.0,7.0,91,0.04,,,0.24,Wunderground v.1.12,2013-02-27 19:14:00,
2013-02-27 14:15:00,28.4,21.8,29.81,N/A,-737280,0.0,0.0,76,0.00,,,0.00,Wunderground v.1.12,2013-02-27 19:15:00,
2013-02-27 14:19:00,35.2,32.8,29.50,SSW,208,5.0,7.0,91,0.04,,,0.25,Wunderground v.1.12,2013-02-27 19:19:00,
2013-02-27 14:20:00,28.4,21.8,29.81,N/A,-737280,0.0,0.0,76,0.00,,,0.00,Wunderground v.1.12,2013-02-27 19:20:00,
2013-02-27 14:25:00,35.2,32.8,29.50,SSW,208,4.0,4.0,91,0.04,,,0.25,Wunderground v.1.12,2013-02-27 19:25:00,
2013-02-27 14:30:00,35.2,32.8,29.50,SSW,208,4.0,4.0,91,0.05,,,0.26,Wunderground v.1.12,2013-02-27 19:30:00,
2013-02-27 14:35:00,35.2,32.6,29.50,SSW,209,4.0,4.0,90,0.05,,,0.26,Wunderground v.1.12,2013-02-27 19:35:00,
2013-02-27 14:40:00,35.0,32.4,29.50,SW,214,4.0,5.0,90,0.05,,,0.26,Wunderground v.1.12,2013-02-27 19:40:00,
2013-02-27 14:45:00,35.0,32.4,29.50,SSW,212,4.0,5.0,90,0.04,,,0.27,Wunderground v.1.12,2013-02-27 19:45:00,
2013-02-27 14:50:00,35.0,32.4,29.50,SSW,209,4.0,4.0,90,0.04,,,0.27,Wunderground v.1.12,2013-02-27 19:50:00,
2013-02-27 14:55:00,35.0,32.4,29.50,SW,216,6.0,6.0,90,0.04,,,0.27,Wunderground v.1.12,2013-02-27 19:55:00,
2013-02-27 15:00:00,35.0,32.4,29.51,SW,221,6.0,7.0,90,0.04,,,0.28,Wunderground v.1.12,2013-02-27 20:00:00,
2013-02-27 15:05:00,35.0,32.4,29.51,SW,216,7.0,8.0,90,0.04,,,0.28,Wunderground v.1.12,2013-02-27 20:05:00,
2013-02-27 15:10:00,34.9,32.3,29.51,SW,215,6.0,8.0,90,0.04,,,0.28,Wunderground v.1.12,2013-02-27 20:10:00,
2013-02-27 15:15:00,34.9,32.3,29.51,SSW,213,6.0,13.0,90,0.00,,,0.28,Wunderground v.1.12,2013-02-27 20:15:00,
2013-02-27 15:20:00,27.8,21.8,29.82,N/A,-737280,0.0,0.0,78,0.00,,,0.00,Wunderground v.1.12,2013-02-27 20:20:00,
2013-02-27 15:21:00,35.0,32.4,29.51,SW,227,7.0,7.0,90,0.00,,,0.29,Wunderground v.1.12,2013-02-27 20:21:00,
2013-02-27 15:25:00,27.8,21.8,29.82,N/A,-737280,0.0,0.0,78,0.00,,,0.00,Wunderground v.1.12,2013-02-27 20:25:00,
2013-02-27 15:26:00,34.9,32.3,29.51,SW,218,4.0,9.0,90,0.00,,,0.29,Wunderground v.1.12,2013-02-27 20:26:00,
2013-02-27 15:30:00,27.8,21.8,29.82,N/A,-737280,0.0,0.0,78,0.00,,,0.00,Wunderground v.1.12,2013-02-27 20:30:00,
2013-02-27 15:31:00,35.0,32.4,29.51,SW,223,6.0,8.0,90,0.00,,,0.29,Wunderground v.1.12,2013-02-27 20:31:00,
2013-02-27 15:35:00,27.8,21.8,29.82,N/A,-737280,0.0,0.0,78,0.00,,,0.00,Wunderground v.1.12,2013-02-27 20:35:00,
2013-02-27 15:36:00,35.0,32.4,29.51,SW,214,1.0,6.0,90,0.04,,,0.30,Wunderground v.1.12,2013-02-27 20:36:00,
2013-02-27 15:40:00,27.8,21.8,29.82,N/A,-737280,0.0,0.0,78,0.00,,,0.00,Wunderground v.1.12,2013-02-27 20:40:00,
2013-02-27 15:41:00,35.0,32.4,29.51,SW,214,4.0,5.0,90,0.04,,,0.30,Wunderground v.1.12,2013-02-27 20:41:00,
2013-02-27 15:45:00,27.5,21.8,29.82,N/A,-737280,0.0,0.0,79,0.00,,,0.00,Wunderground v.1.12,2013-02-27 20:45:00,
2013-02-27 15:47:00,34.9,32.3,29.51,SSW,213,7.0,12.0,90,0.04,,,0.30,Wunderground v.1.12,2013-02-27 20:47:00,
2013-02-27 15:50:00,27.5,21.8,29.82,N/A,-737280,0.0,0.0,79,0.00,,,0.00,Wunderground v.1.12,2013-02-27 20:50:00,
2013-02-27 15:52:00,34.9,32.3,29.51,SSW,212,4.0,8.0,90,0.00,,,0.30,Wunderground v.1.12,2013-02-27 20:52:00,
2013-02-27 15:55:00,27.5,21.8,29.82,N/A,-737280,0.0,0.0,79,0.00,,,0.00,Wunderground v.1.12,2013-02-27 20:55:00,
2013-02-27 15:57:00,34.7,32.1,29.52,SW,220,5.0,8.0,90,0.00,,,0.31,Wunderground v.1.12,2013-02-27 20:57:00,
2013-02-27 16:00:00,27.5,21.8,29.82,N/A,-737280,0.0,0.0,79,0.00,,,0.00,Wunderground v.1.12,2013-02-27 21:00:00,
2013-02-27 16:02:00,34.7,32.1,29.52,SW,215,6.0,7.0,90,0.00,,,0.31,Wunderground v.1.12,2013-02-27 21:02:00,
2013-02-27 16:05:00,27.5,21.8,29.82,N/A,-737280,0.0,0.0,79,0.00,,,0.00,Wunderground v.1.12,2013-02-27 21:05:00,
2013-02-27 16:07:00,34.7,32.1,29.52,SSW,210,2.0,8.0,90,0.00,,,0.31,Wunderground v.1.12,2013-02-27 21:07:00,
2013-02-27 16:10:00,27.5,21.8,29.82,N/A,-737280,0.0,0.0,79,0.00,,,0.00,Wunderground v.1.12,2013-02-27 21:10:00,
2013-02-27 16:13:00,34.6,32.2,29.52,SW,221,9.0,9.0,91,0.00,,,0.32,Wunderground v.1.12,2013-02-27 21:13:00,
2013-02-27 16:15:00,27.6,22.2,29.83,N/A,-737280,0.0,0.0,80,0.00,,,0.00,Wunderground v.1.12,2013-02-27 21:15:00,
2013-02-27 16:18:00,34.4,32.0,29.52,WSW,250,9.0,9.0,91,0.00,,,0.32,Wunderground v.1.12,2013-02-27 21:18:00,
2013-02-27 16:20:00,27.6,22.2,29.83,N/A,-737280,0.0,0.0,80,0.00,,,0.00,Wunderground v.1.12,2013-02-27 21:20:00,
2013-02-27 16:23:00,34.4,32.0,29.52,WSW,239,5.0,8.0,91,0.00,,,0.32,Wunderground v.1.12,2013-02-27 21:23:00,
2013-02-27 16:25:00,27.6,22.2,29.83,N/A,-737280,0.0,0.0,80,0.00,,,0.00,Wunderground v.1.12,2013-02-27 21:25:00,
2013-02-27 16:28:00,34.3,31.9,29.52,SW,230,4.0,6.0,91,0.00,,,0.32,Wunderground v.1.12,2013-02-27 21:28:00,
2013-02-27 16:30:00,27.6,22.2,29.83,N/A,-737280,0.0,0.0,80,0.00,,,0.00,Wunderground v.1.12,2013-02-27 21:30:00,
2013-02-27 16:33:00,34.3,32.2,29.52,SW,218,4.0,12.0,92,0.00,,,0.33,Wunderground v.1.12,2013-02-27 21:33:00,
2013-02-27 16:35:00,27.6,22.2,29.83,N/A,-737280,0.0,0.0,80,0.00,,,0.00,Wunderground v.1.12,2013-02-27 21:35:00,
2013-02-27 16:38:00,34.1,32.0,29.52,SW,216,5.0,7.0,92,0.00,,,0.33,Wunderground v.1.12,2013-02-27 21:38:00,
2013-02-27 16:40:00,27.6,22.2,29.83,N/A,-737280,0.0,0.0,80,0.00,,,0.00,Wunderground v.1.12,2013-02-27 21:40:00,
2013-02-27 16:43:00,34.1,32.0,29.52,SW,219,8.0,8.0,92,0.00,,,0.33,Wunderground v.1.12,2013-02-27 21:43:00,
2013-02-27 16:45:00,27.9,22.8,29.84,N/A,-737280,0.0,0.0,81,0.00,,,0.00,Wunderground v.1.12,2013-02-27 21:45:00,
2013-02-27 16:48:00,34.1,32.0,29.52,SW,221,4.0,6.0,92,0.04,,,0.34,Wunderground v.1.12,2013-02-27 21:48:00,
2013-02-27 16:50:00,27.9,22.8,29.84,N/A,-737280,0.0,0.0,81,0.00,,,0.00,Wunderground v.1.12,2013-02-27 21:50:00,
2013-02-27 16:54:00,34.1,32.0,29.52,SW,224,5.0,7.0,92,0.04,,,0.34,Wunderground v.1.12,2013-02-27 21:54:00,
2013-02-27 16:55:00,27.9,22.8,29.84,N/A,-737280,0.0,0.0,81,0.00,,,0.00,Wunderground v.1.12,2013-02-27 21:55:00,
2013-02-27 16:59:00,34.1,32.3,29.52,SW,225,4.0,6.0,93,0.04,,,0.34,Wunderground v.1.12,2013-02-27 21:59:00,
2013-02-27 17:00:00,27.9,22.8,29.84,N/A,-737280,0.0,0.0,81,0.00,,,0.00,Wunderground v.1.12,2013-02-27 22:00:00,
2013-02-27 17:04:00,34.0,32.2,29.52,SW,215,5.0,7.0,93,0.04,,,0.34,Wunderground v.1.12,2013-02-27 22:04:00,
2013-02-27 17:05:00,27.9,22.8,29.84,N/A,-737280,0.0,0.0,81,0.00,,,0.00,Wunderground v.1.12,2013-02-27 22:05:00,
2013-02-27 17:09:00,34.0,32.2,29.52,SW,219,4.0,8.0,93,0.00,,,0.35,Wunderground v.1.12,2013-02-27 22:09:00,
2013-02-27 17:10:00,27.9,22.8,29.84,N/A,-737280,0.0,0.0,81,0.00,,,0.00,Wunderground v.1.12,2013-02-27 22:10:00,
2013-02-27 17:14:00,34.0,32.2,29.52,SW,215,6.0,8.0,93,0.00,,,0.35,Wunderground v.1.12,2013-02-27 22:14:00,
2013-02-27 17:15:00,28.1,23.0,29.84,N/A,-737280,0.0,0.0,81,0.00,,,0.00,Wunderground v.1.12,2013-02-27 22:15:00,
2013-02-27 17:20:00,33.8,32.0,29.52,SW,221,5.0,5.0,93,0.00,,,0.35,Wunderground v.1.12,2013-02-27 22:20:00,
2013-02-27 17:25:00,33.8,32.0,29.52,SW,220,5.0,5.0,93,0.00,,,0.36,Wunderground v.1.12,2013-02-27 22:25:00,
2013-02-27 17:30:00,33.8,32.0,29.52,SW,223,4.0,5.0,93,0.00,,,0.36,Wunderground v.1.12,2013-02-27 22:30:00,
2013-02-27 17:35:00,33.7,31.9,29.52,SW,216,6.0,6.0,93,0.00,,,0.36,Wunderground v.1.12,2013-02-27 22:35:00,
2013-02-27 17:40:00,33.7,32.2,29.52,SW,223,4.0,6.0,94,0.00,,,0.36,Wunderground v.1.12,2013-02-27 22:40:00,
2013-02-27 17:45:00,33.7,32.2,29.53,SW,225,4.0,8.0,94,0.00,,,0.36,Wunderground v.1.12,2013-02-27 22:45:00,
2013-02-27 17:50:00,33.7,32.2,29.53,SW,227,5.0,7.0,94,0.00,,,0.37,Wunderground v.1.12,2013-02-27 22:50:00,
2013-02-27 17:55:00,33.7,32.2,29.53,SW,221,4.0,5.0,94,0.00,,,0.37,Wunderground v.1.12,2013-02-27 22:55:00,
2013-02-27 18:00:00,33.7,32.2,29.54,SW,221,5.0,6.0,94,0.00,,,0.37,Wunderground v.1.12,2013-02-27 23:00:00,
2013-02-27 18:05:00,33.5,32.0,29.54,SW,221,5.0,5.0,94,0.00,,,0.37,Wunderground v.1.12,2013-02-27 23:05:00,
2013-02-27 18:10:00,33.5,32.0,29.54,SW,219,4.0,6.0,94,0.00,,,0.37,Wunderground v.1.12,2013-02-27 23:10:00,
2013-02-27 18:15:00,33.5,32.0,29.54,SW,218,6.0,9.0,94,0.00,,,0.37,Wunderground v.1.12,2013-02-27 23:15:00,
2013-02-27 18:20:00,33.5,32.0,29.54,SW,218,4.0,5.0,94,0.00,,,0.37,Wunderground v.1.12,2013-02-27 23:20:00,
2013-02-27 18:25:00,33.5,32.0,29.54,SW,219,4.0,6.0,94,0.00,,,0.38,Wunderground v.1.12,2013-02-27 23:25:00,
2013-02-27 18:30:00,28.2,23.1,29.85,N/A,-737280,0.0,0.0,81,0.00,,,0.00,Wunderground v.1.12,2013-02-27 23:30:00,
2013-02-27 18:31:00,33.4,31.9,29.54,SW,219,2.0,7.0,94,0.00,,,0.38,Wunderground v.1.12,2013-02-27 23:31:00,
2013-02-27 18:35:00,28.2,23.1,29.85,N/A,-737280,0.0,0.0,81,0.00,,,0.00,Wunderground v.1.12,2013-02-27 23:35:00,
2013-02-27 18:36:00,33.4,31.9,29.54,SW,223,2.0,6.0,94,0.00,,,0.38,Wunderground v.1.12,2013-02-27 23:36:00,
2013-02-27 18:40:00,28.2,23.1,29.85,N/A,-737280,0.0,0.0,81,0.00,,,0.00,Wunderground v.1.12,2013-02-27 23:40:00,
2013-02-27 18:41:00,33.4,32.1,29.54,SW,227,6.0,7.0,95,0.00,,,0.38,Wunderground v.1.12,2013-02-27 23:41:00,
2013-02-27 18:45:00,28.4,23.3,29.86,N/A,-737280,0.0,0.0,81,0.00,,,0.00,Wunderground v.1.12,2013-02-27 23:45:00,
2013-02-27 18:46:00,33.4,32.1,29.54,SW,225,7.0,7.0,95,0.00,,,0.38,Wunderground v.1.12,2013-02-27 23:46:00,
2013-02-27 18:50:00,28.4,23.3,29.86,N/A,-737280,0.0,0.0,81,0.00,,,0.00,Wunderground v.1.12,2013-02-27 23:50:00,
2013-02-27 18:51:00,33.4,32.1,29.54,SW,225,6.0,6.0,95,0.00,,,0.38,Wunderground v.1.12,2013-02-27 23:51:00,
2013-02-27 18:55:00,28.4,23.3,29.86,N/A,-737280,0.0,0.0,81,0.00,,,0.00,Wunderground v.1.12,2013-02-27 23:55:00,
2013-02-27 18:56:00,33.4,32.1,29.54,SW,216,4.0,6.0,95,0.00,,,0.38,Wunderground v.1.12,2013-02-27 23:56:00,
2013-02-27 19:00:00,28.4,23.3,29.86,N/A,-737280,0.0,0.0,81,0.00,,,0.00,Wunderground v.1.12,2013-02-28 00:00:00,
2013-02-27 19:01:00,33.4,32.1,29.54,SW,216,7.0,7.0,95,0.00,,,0.38,Wunderground v.1.12,2013-02-28 00:01:00,
2013-02-27 19:05:00,28.4,23.3,29.86,N/A,-737280,0.0,0.0,81,0.00,,,0.00,Wunderground v.1.12,2013-02-28 00:05:00,
2013-02-27 19:06:00,33.4,32.1,29.54,SW,216,2.0,6.0,95,0.00,,,0.38,Wunderground v.1.12,2013-02-28 00:06:00,
2013-02-27 19:10:00,28.4,23.3,29.86,N/A,-737280,0.0,0.0,81,0.00,,,0.00,Wunderground v.1.12,2013-02-28 00:10:00,
2013-02-27 19:11:00,33.4,32.1,29.54,SW,216,2.0,5.0,95,0.00,,,0.38,Wunderground v.1.12,2013-02-28 00:11:00,
2013-02-27 19:15:00,28.2,23.1,29.88,N/A,-737280,0.0,0.0,81,0.00,,,0.00,Wunderground v.1.12,2013-02-28 00:15:00,
2013-02-27 19:16:00,33.4,32.1,29.54,SW,217,1.0,5.0,95,0.00,,,0.38,Wunderground v.1.12,2013-02-28 00:16:00,
2013-02-27 19:20:00,28.2,23.1,29.88,N/A,-737280,0.0,0.0,81,0.00,,,0.00,Wunderground v.1.12,2013-02-28 00:20:00,
2013-02-27 19:21:00,33.4,32.1,29.54,SW,216,5.0,7.0,95,0.00,,,0.38,Wunderground v.1.12,2013-02-28 00:21:00,
2013-02-27 19:25:00,28.2,23.1,29.88,N/A,-737280,0.0,0.0,81,0.00,,,0.00,Wunderground v.1.12,2013-02-28 00:25:00,
2013-02-27 19:26:00,33.4,32.1,29.55,SW,216,5.0,8.0,95,0.00,,,0.38,Wunderground v.1.12,2013-02-28 00:26:00,
2013-02-27 19:30:00,28.2,23.1,29.88,N/A,-737280,0.0,0.0,81,0.00,,,0.00,Wunderground v.1.12,2013-02-28 00:30:00,
2013-02-27 19:31:00,33.4,32.1,29.55,SW,216,2.0,4.0,95,0.00,,,0.38,Wunderground v.1.12,2013-02-28 00:31:00,
2013-02-27 19:35:00,28.2,23.1,29.88,N/A,-737280,0.0,0.0,81,0.00,,,0.00,Wunderground v.1.12,2013-02-28 00:35:00,
2013-02-27 19:36:00,33.4,32.1,29.55,SW,216,6.0,7.0,95,0.00,,,0.38,Wunderground v.1.12,2013-02-28 00:36:00,
2013-02-27 19:40:00,28.2,23.1,29.88,N/A,-737280,0.0,0.0,81,0.00,,,0.00,Wunderground v.1.12,2013-02-28 00:40:00,
2013-02-27 19:42:00,33.4,32.1,29.55,WSW,246,7.0,7.0,95,0.00,,,0.38,Wunderground v.1.12,2013-02-28 00:42:00,
2013-02-27 19:45:00,28.2,23.1,29.91,N/A,-737280,0.0,0.0,81,0.00,,,0.00,Wunderground v.1.12,2013-02-28 00:45:00,
2013-02-27 19:47:00,33.4,32.1,29.55,SW,233,2.0,7.0,95,0.00,,,0.39,Wunderground v.1.12,2013-02-28 00:47:00,
2013-02-27 19:50:00,28.2,23.1,29.91,N/A,-737280,0.0,0.0,81,0.00,,,0.00,Wunderground v.1.12,2013-02-28 00:50:00,
2013-02-27 19:52:00,33.4,32.1,29.55,SW,229,6.0,7.0,95,0.00,,,0.39,Wunderground v.1.12,2013-02-28 00:52:00,
2013-02-27 19:55:00,28.2,23.1,29.91,N/A,-737280,0.0,0.0,81,0.00,,,0.00,Wunderground v.1.12,2013-02-28 00:55:00,
2013-02-27 19:57:00,33.4,32.1,29.54,SW,229,4.0,7.0,95,0.00,,,0.39,Wunderground v.1.12,2013-02-28 00:57:00,
2013-02-27 20:00:00,28.2,23.1,29.91,N/A,-737280,0.0,0.0,81,0.00,,,0.00,Wunderground v.1.12,2013-02-28 01:00:00,
2013-02-27 20:02:00,33.2,31.9,29.54,SW,229,1.0,5.0,95,0.00,,,0.39,Wunderground v.1.12,2013-02-28 01:02:00,
2013-02-27 20:05:00,28.2,23.1,29.91,N/A,-737280,0.0,0.0,81,0.00,,,0.00,Wunderground v.1.12,2013-02-28 01:05:00,
2013-02-27 20:07:00,33.2,31.9,29.54,SW,228,2.0,8.0,95,0.00,,,0.39,Wunderground v.1.12,2013-02-28 01:07:00,
2013-02-27 20:10:00,28.2,23.1,29.91,N/A,-737280,0.0,0.0,81,0.00,,,0.00,Wunderground v.1.12,2013-02-28 01:10:00,
2013-02-27 20:12:00,33.2,31.9,29.54,SW,228,7.0,7.0,95,0.00,,,0.39,Wunderground v.1.12,2013-02-28 01:12:00,
2013-02-27 20:15:00,28.4,23.6,29.92,N/A,-737280,0.0,0.0,82,0.00,,,0.00,Wunderground v.1.12,2013-02-28 01:15:00,
2013-02-27 20:17:00,33.2,31.9,29.54,SW,227,5.0,8.0,95,0.00,,,0.39,Wunderground v.1.12,2013-02-28 01:17:00,
2013-02-27 20:20:00,28.4,23.6,29.92,N/A,-737280,0.0,0.0,82,0.00,,,0.00,Wunderground v.1.12,2013-02-28 01:20:00,
2013-02-27 20:23:00,33.2,31.9,29.54,SW,227,8.0,8.0,95,0.00,,,0.39,Wunderground v.1.12,2013-02-28 01:23:00,
2013-02-27 20:25:00,28.4,23.6,29.92,N/A,-737280,0.0,0.0,82,0.00,,,0.00,Wunderground v.1.12,2013-02-28 01:25:00,
2013-02-27 20:28:00,33.2,31.9,29.54,SW,227,6.0,6.0,95,0.00,,,0.39,Wunderground v.1.12,2013-02-28 01:28:00,
2013-02-27 20:30:00,28.4,23.6,29.92,N/A,-737280,0.0,0.0,82,0.00,,,0.00,Wunderground v.1.12,2013-02-28 01:30:00,
2013-02-27 20:33:00,33.2,31.9,29.54,SW,227,4.0,7.0,95,0.00,,,0.39,Wunderground v.1.12,2013-02-28 01:33:00,
2013-02-27 20:35:00,28.4,23.6,29.92,N/A,-737280,0.0,0.0,82,0.00,,,0.00,Wunderground v.1.12,2013-02-28 01:35:00,
2013-02-27 20:38:00,33.1,31.8,29.54,SW,227,5.0,6.0,95,0.00,,,0.39,Wunderground v.1.12,2013-02-28 01:38:00,
2013-02-27 20:40:00,28.4,23.6,29.92,N/A,-737280,0.0,0.0,82,0.00,,,0.00,Wunderground v.1.12,2013-02-28 01:40:00,
2013-02-27 20:43:00,33.1,31.8,29.54,SW,227,2.0,6.0,95,0.00,,,0.39,Wunderground v.1.12,2013-02-28 01:43:00,
2013-02-27 20:45:00,28.4,23.6,29.94,N/A,-737280,0.0,0.0,82,0.00,,,0.00,Wunderground v.1.12,2013-02-28 01:45:00,
2013-02-27 20:48:00,33.1,31.8,29.54,SW,227,4.0,7.0,95,0.00,,,0.39,Wunderground v.1.12,2013-02-28 01:48:00,
2013-02-27 20:50:00,28.4,23.6,29.94,N/A,-737280,0.0,0.0,82,0.00,,,0.00,Wunderground v.1.12,2013-02-28 01:50:00,
2013-02-27 20:53:00,33.1,31.8,29.54,SW,227,6.0,7.0,95,0.00,,,0.39,Wunderground v.1.12,2013-02-28 01:53:00,
2013-02-27 20:55:00,28.4,23.6,29.94,N/A,-737280,0.0,0.0,82,0.00,,,0.00,Wunderground v.1.12,2013-02-28 01:55:00,
2013-02-27 20:58:00,33.1,31.8,29.54,SW,227,6.0,6.0,95,0.00,,,0.39,Wunderground v.1.12,2013-02-28 01:58:00,
2013-02-27 21:00:00,28.4,23.6,29.94,N/A,-737280,0.0,0.0,82,0.00,,,0.00,Wunderground v.1.12,2013-02-28 02:00:00,
2013-02-27 21:04:00,33.1,32.1,29.54,SW,227,7.0,7.0,96,0.00,,,0.39,Wunderground v.1.12,2013-02-28 02:04:00,
2013-02-27 21:05:00,28.4,23.6,29.94,N/A,-737280,0.0,0.0,82,0.00,,,0.00,Wunderground v.1.12,2013-02-28 02:05:00,
2013-02-27 21:09:00,33.1,32.1,29.54,SW,227,0.0,7.0,96,0.00,,,0.39,Wunderground v.1.12,2013-02-28 02:09:00,
2013-02-27 21:10:00,28.4,23.6,29.94,N/A,-737280,0.0,0.0,82,0.00,,,0.00,Wunderground v.1.12,2013-02-28 02:10:00,
2013-02-27 21:14:00,33.1,32.1,29.54,SW,227,4.0,5.0,96,0.00,,,0.39,Wunderground v.1.12,2013-02-28 02:14:00,
2013-02-27 21:15:00,28.5,24.0,29.95,N/A,-737280,0.0,0.0,83,0.00,,,0.00,Wunderground v.1.12,2013-02-28 02:15:00,
2013-02-27 21:19:00,33.1,32.1,29.54,SW,227,2.0,8.0,96,0.00,,,0.39,Wunderground v.1.12,2013-02-28 02:19:00,
2013-02-27 21:20:00,28.5,24.0,29.95,N/A,-737280,0.0,0.0,83,0.00,,,0.00,Wunderground v.1.12,2013-02-28 02:20:00,
2013-02-27 21:24:00,33.1,32.1,29.54,SW,227,7.0,7.0,96,0.00,,,0.39,Wunderground v.1.12,2013-02-28 02:24:00,
2013-02-27 21:25:00,28.5,24.0,29.95,N/A,-737280,0.0,0.0,83,0.00,,,0.00,Wunderground v.1.12,2013-02-28 02:25:00,
2013-02-27 21:29:00,33.1,32.1,29.54,SW,227,2.0,6.0,96,0.00,,,0.39,Wunderground v.1.12,2013-02-28 02:29:00,
2013-02-27 21:30:00,28.5,24.0,29.95,N/A,-737280,0.0,0.0,83,0.00,,,0.00,Wunderground v.1.12,2013-02-28 02:30:00,
2013-02-27 21:34:00,33.1,32.1,29.54,SW,231,1.0,8.0,96,0.00,,,0.39,Wunderground v.1.12,2013-02-28 02:34:00,
2013-02-27 21:35:00,28.5,24.0,29.95,N/A,-737280,0.0,0.0,83,0.00,,,0.00,Wunderground v.1.12,2013-02-28 02:35:00,
2013-02-27 21:39:00,33.1,32.1,29.54,SW,233,5.0,6.0,96,0.00,,,0.39,Wunderground v.1.12,2013-02-28 02:39:00,
2013-02-27 21:40:00,28.5,24.0,29.95,N/A,-737280,0.0,0.0,83,0.00,,,0.00,Wunderground v.1.12,2013-02-28 02:40:00,
2013-02-27 21:44:00,33.1,32.1,29.54,SW,233,2.0,6.0,96,0.00,,,0.39,Wunderground v.1.12,2013-02-28 02:44:00,
2013-02-27 21:45:00,28.7,24.2,29.97,N/A,-737280,0.0,0.0,83,0.00,,,0.00,Wunderground v.1.12,2013-02-28 02:45:00,
2013-02-27 21:49:00,33.1,32.1,29.54,SW,233,0.0,5.0,96,0.00,,,0.39,Wunderground v.1.12,2013-02-28 02:49:00,
2013-02-27 21:50:00,28.7,24.2,29.97,N/A,-737280,0.0,0.0,83,0.00,,,0.00,Wunderground v.1.12,2013-02-28 02:50:00,
2013-02-27 21:54:00,33.1,32.1,29.54,SW,233,0.0,4.0,96,0.00,,,0.39,Wunderground v.1.12,2013-02-28 02:54:00,
2013-02-27 21:55:00,28.7,24.2,29.97,N/A,-737280,0.0,0.0,83,0.00,,,0.00,Wunderground v.1.12,2013-02-28 02:55:00,
2013-02-27 21:59:00,33.1,32.1,29.54,SW,233,0.0,6.0,96,0.00,,,0.39,Wunderground v.1.12,2013-02-28 02:59:00,
2013-02-27 22:00:00,28.7,24.2,29.97,N/A,-737280,0.0,0.0,83,0.00,,,0.00,Wunderground v.1.12,2013-02-28 03:00:00,
2013-02-27 22:04:00,33.1,32.1,29.54,SW,233,0.0,6.0,96,0.00,,,0.39,Wunderground v.1.12,2013-02-28 03:04:00,
2013-02-27 22:05:00,28.7,24.2,29.97,N/A,-737280,0.0,0.0,83,0.00,,,0.00,Wunderground v.1.12,2013-02-28 03:05:00,
2013-02-27 22:10:00,33.1,32.1,29.54,SW,233,2.0,2.0,96,0.00,,,0.39,Wunderground v.1.12,2013-02-28 03:10:00,
2013-02-27 22:15:00,33.1,32.1,29.54,SW,233,1.0,2.0,96,0.00,,,0.39,Wunderground v.1.12,2013-02-28 03:15:00,
2013-02-27 22:20:00,33.1,32.1,29.54,SW,232,4.0,4.0,96,0.00,,,0.40,Wunderground v.1.12,2013-02-28 03:20:00,
2013-02-27 22:25:00,33.1,32.1,29.54,SW,229,5.0,5.0,96,0.00,,,0.40,Wunderground v.1.12,2013-02-28 03:25:00,
2013-02-27 22:30:00,33.1,32.1,29.54,SW,229,5.0,5.0,96,0.00,,,0.40,Wunderground v.1.12,2013-02-28 03:30:00,
2013-02-27 22:35:00,33.1,32.1,29.54,SW,229,2.0,3.0,96,0.00,,,0.40,Wunderground v.1.12,2013-02-28 03:35:00,
2013-02-27 22:40:00,33.1,32.1,29.54,SW,229,2.0,4.0,96,0.00,,,0.40,Wunderground v.1.12,2013-02-28 03:40:00,
2013-02-27 22:45:00,33.1,32.1,29.54,SW,229,0.0,2.0,96,0.00,,,0.40,Wunderground v.1.12,2013-02-28 03:45:00,
2013-02-27 22:50:00,33.1,32.1,29.54,SW,229,2.0,2.0,96,0.00,,,0.40,Wunderground v.1.12,2013-02-28 03:50:00,
2013-02-27 22:55:00,33.1,32.1,29.54,SW,229,4.0,4.0,96,0.00,,,0.40,Wunderground v.1.12,2013-02-28 03:55:00,
2013-02-27 23:00:00,30.9,25.8,30.00,NNE,23,7.0,15.0,81,0.00,,,0.00,Wunderground v.1.12,2013-02-28 04:00:00,
2013-02-27 23:01:00,33.1,32.1,29.53,SW,229,2.0,2.0,96,0.00,,,0.40,Wunderground v.1.12,2013-02-28 04:01:00,
2013-02-27 23:05:00,30.9,25.8,30.00,NNE,23,7.0,15.0,81,0.00,,,0.00,Wunderground v.1.12,2013-02-28 04:05:00,
2013-02-27 23:06:00,33.1,32.1,29.53,SW,229,4.0,4.0,96,0.00,,,0.40,Wunderground v.1.12,2013-02-28 04:06:00,
2013-02-27 23:10:00,30.9,25.8,30.00,NNE,23,7.0,15.0,81,0.00,,,0.00,Wunderground v.1.12,2013-02-28 04:10:00,
2013-02-27 23:11:00,33.1,32.1,29.53,SW,229,2.0,4.0,96,0.00,,,0.40,Wunderground v.1.12,2013-02-28 04:11:00,
2013-02-27 23:16:00,33.1,32.1,29.53,SW,229,2.0,2.0,96,0.00,,,0.40,Wunderground v.1.12,2013-02-28 04:16:00,
2013-02-27 23:21:00,33.1,32.1,29.53,SW,229,0.0,1.0,96,0.00,,,0.40,Wunderground v.1.12,2013-02-28 04:21:00,
2013-02-27 23:25:00,32.5,26.4,30.02,NNE,23,7.0,14.0,78,0.00,,,0.00,Wunderground v.1.12,2013-02-28 04:25:00,
2013-02-27 23:26:00,33.1,32.1,29.53,SW,229,1.0,2.0,96,0.00,,,0.40,Wunderground v.1.12,2013-02-28 04:26:00,
2013-02-27 23:30:00,32.5,26.4,30.02,NNE,23,7.0,14.0,78,0.00,,,0.00,Wunderground v.1.12,2013-02-28 04:30:00,
2013-02-27 23:31:00,33.1,32.1,29.53,SW,229,2.0,4.0,96,0.00,,,0.40,Wunderground v.1.12,2013-02-28 04:31:00,
2013-02-27 23:35:00,32.5,26.4,30.02,NNE,23,7.0,14.0,78,0.00,,,0.00,Wunderground v.1.12,2013-02-28 04:35:00,
2013-02-27 23:36:00,33.1,32.1,29.53,SW,229,4.0,4.0,96,0.00,,,0.40,Wunderground v.1.12,2013-02-28 04:36:00,
2013-02-27 23:40:00,32.5,26.4,30.02,NNE,23,7.0,14.0,78,0.00,,,0.00,Wunderground v.1.12,2013-02-28 04:40:00,
2013-02-27 23:41:00,33.1,32.1,29.52,SW,229,6.0,6.0,96,0.00,,,0.40,Wunderground v.1.12,2013-02-28 04:41:00,
2013-02-27 23:45:00,34.1,26.7,30.04,NE,45,6.0,15.0,74,0.00,,,0.00,Wunderground v.1.12,2013-02-28 04:45:00,
2013-02-27 23:47:00,33.1,32.1,29.52,SW,229,1.0,4.0,96,0.00,,,0.40,Wunderground v.1.12,2013-02-28 04:47:00,
2013-02-27 23:50:00,34.1,26.7,30.04,NE,45,6.0,15.0,74,0.00,,,0.00,Wunderground v.1.12,2013-02-28 04:50:00,
2013-02-27 23:52:00,33.1,32.1,29.52,SW,229,2.0,4.0,96,0.00,,,0.40,Wunderground v.1.12,2013-02-28 04:52:00,
2013-02-27 23:55:00,34.1,26.7,30.04,NE,45,6.0,15.0,74,0.00,,,0.00,Wunderground v.1.12,2013-02-28 04:55:00,
2013-02-27 23:57:00,33.1,32.1,29.52,SW,229,4.0,5.0,96,0.00,,,0.40,Wunderground v.1.12,2013-02-28 04:57:00,